sensor_id;sensor_type;location;lat;lon;timestamp;P1;durP1;ratioP1;P2;durP2;ratioP2
6438;SDS011;3252;52.540;13.290;2023-09-08T00:00:22;9.67;;;6.17;;
6438;SDS011;3252;52.540;13.290;2023-09-08T00:02:24;12.97;;;6.37;;
6438;SDS011;3252;52.540;13.290;2023-09-08T00:04:27;9.70;;;6.40;;
6438;SDS011;3252;52.540;13.290;2023-09-08T00:06:29;8.37;;;6.07;;
6438;SDS011;3252;52.540;13.290;2023-09-08T00:08:31;11.50;;;6.00;;
6438;SDS011;3252;52.540;13.290;2023-09-08T00:10:33;11.37;;;6.30;;
6438;SDS011;3252;52.540;13.290;2023-09-08T00:12:36;9.43;;;5.93;;
6438;SDS011;3252;52.540;13.290;2023-09-08T00:14:38;15.30;;;6.63;;
6438;SDS011;3252;52.540;13.290;2023-09-08T00:16:40;11.50;;;6.17;;
6438;SDS011;3252;52.540;13.290;2023-09-08T00:18:43;12.00;;;6.60;;
6438;SDS011;3252;52.540;13.290;2023-09-08T00:20:46;12.93;;;7.13;;
6438;SDS011;3252;52.540;13.290;2023-09-08T00:22:48;9.73;;;6.53;;
6438;SDS011;3252;52.540;13.290;2023-09-08T00:24:51;11.83;;;6.40;;
6438;SDS011;3252;52.540;13.290;2023-09-08T00:26:53;10.00;;;6.77;;
6438;SDS011;3252;52.540;13.290;2023-09-08T00:28:55;11.57;;;6.43;;
6438;SDS011;3252;52.540;13.290;2023-09-08T00:30:58;8.60;;;6.37;;
6438;SDS011;3252;52.540;13.290;2023-09-08T00:33:01;9.27;;;6.53;;
6438;SDS011;3252;52.540;13.290;2023-09-08T00:35:05;11.27;;;6.47;;
6438;SDS011;3252;52.540;13.290;2023-09-08T00:37:09;9.23;;;6.23;;
6438;SDS011;3252;52.540;13.290;2023-09-08T00:39:11;10.73;;;7.07;;
6438;SDS011;3252;52.540;13.290;2023-09-08T00:41:14;12.30;;;7.30;;
6438;SDS011;3252;52.540;13.290;2023-09-08T00:43:16;9.93;;;7.17;;
6438;SDS011;3252;52.540;13.290;2023-09-08T00:45:19;10.77;;;6.80;;
6438;SDS011;3252;52.540;13.290;2023-09-08T00:47:21;22.60;;;12.17;;
6438;SDS011;3252;52.540;13.290;2023-09-08T00:49:24;13.83;;;8.40;;
6438;SDS011;3252;52.540;13.290;2023-09-08T00:51:26;14.03;;;7.50;;
6438;SDS011;3252;52.540;13.290;2023-09-08T00:53:31;11.47;;;8.90;;
6438;SDS011;3252;52.540;13.290;2023-09-08T00:55:33;8.60;;;7.10;;
6438;SDS011;3252;52.540;13.290;2023-09-08T00:57:36;13.40;;;8.33;;
6438;SDS011;3252;52.540;13.290;2023-09-08T00:59:39;11.50;;;7.20;;
6438;SDS011;3252;52.540;13.290;2023-09-08T01:01:41;9.80;;;6.97;;
6438;SDS011;3252;52.540;13.290;2023-09-08T01:03:43;11.60;;;7.17;;
6438;SDS011;3252;52.540;13.290;2023-09-08T01:05:45;12.47;;;7.63;;
6438;SDS011;3252;52.540;13.290;2023-09-08T01:07:49;10.57;;;7.40;;
6438;SDS011;3252;52.540;13.290;2023-09-08T01:09:53;12.53;;;7.47;;
6438;SDS011;3252;52.540;13.290;2023-09-08T01:11:56;10.33;;;7.17;;
6438;SDS011;3252;52.540;13.290;2023-09-08T01:14:01;10.37;;;6.83;;
6438;SDS011;3252;52.540;13.290;2023-09-08T01:16:03;10.60;;;7.37;;
6438;SDS011;3252;52.540;13.290;2023-09-08T01:18:06;12.17;;;7.30;;
6438;SDS011;3252;52.540;13.290;2023-09-08T01:20:10;13.73;;;7.90;;
6438;SDS011;3252;52.540;13.290;2023-09-08T01:22:23;8.77;;;7.50;;
6438;SDS011;3252;52.540;13.290;2023-09-08T01:25:17;11.77;;;7.43;;
6438;SDS011;3252;52.540;13.290;2023-09-08T01:27:21;14.67;;;7.50;;
6438;SDS011;3252;52.540;13.290;2023-09-08T01:29:26;15.10;;;7.50;;
6438;SDS011;3252;52.540;13.290;2023-09-08T01:31:30;9.50;;;7.07;;
6438;SDS011;3252;52.540;13.290;2023-09-08T01:33:33;12.73;;;8.30;;
6438;SDS011;3252;52.540;13.290;2023-09-08T01:35:35;8.63;;;7.07;;
6438;SDS011;3252;52.540;13.290;2023-09-08T01:37:39;10.30;;;8.00;;
6438;SDS011;3252;52.540;13.290;2023-09-08T01:39:42;9.23;;;7.50;;
6438;SDS011;3252;52.540;13.290;2023-09-08T01:41:45;13.13;;;7.87;;
6438;SDS011;3252;52.540;13.290;2023-09-08T01:43:48;14.03;;;8.07;;
6438;SDS011;3252;52.540;13.290;2023-09-08T01:45:50;12.27;;;8.13;;
6438;SDS011;3252;52.540;13.290;2023-09-08T01:47:52;12.37;;;7.93;;
6438;SDS011;3252;52.540;13.290;2023-09-08T01:49:55;12.83;;;8.03;;
6438;SDS011;3252;52.540;13.290;2023-09-08T01:51:56;10.27;;;7.13;;
6438;SDS011;3252;52.540;13.290;2023-09-08T01:53:58;11.47;;;7.63;;
6438;SDS011;3252;52.540;13.290;2023-09-08T01:55:59;11.10;;;7.07;;
6438;SDS011;3252;52.540;13.290;2023-09-08T01:58:03;12.63;;;8.20;;
6438;SDS011;3252;52.540;13.290;2023-09-08T02:00:06;11.87;;;7.40;;
6438;SDS011;3252;52.540;13.290;2023-09-08T02:02:13;12.77;;;7.47;;
6438;SDS011;3252;52.540;13.290;2023-09-08T02:04:15;10.03;;;7.50;;
6438;SDS011;3252;52.540;13.290;2023-09-08T02:06:17;12.90;;;7.83;;
6438;SDS011;3252;52.540;13.290;2023-09-08T02:08:19;9.23;;;6.90;;
6438;SDS011;3252;52.540;13.290;2023-09-08T02:10:22;10.53;;;8.33;;
6438;SDS011;3252;52.540;13.290;2023-09-08T02:12:24;11.77;;;7.93;;
6438;SDS011;3252;52.540;13.290;2023-09-08T02:14:26;11.70;;;6.83;;
6438;SDS011;3252;52.540;13.290;2023-09-08T02:16:29;11.03;;;7.53;;
6438;SDS011;3252;52.540;13.290;2023-09-08T02:18:31;15.83;;;7.40;;
6438;SDS011;3252;52.540;13.290;2023-09-08T02:20:33;11.53;;;8.03;;
6438;SDS011;3252;52.540;13.290;2023-09-08T02:22:35;11.03;;;7.43;;
6438;SDS011;3252;52.540;13.290;2023-09-08T02:24:37;9.10;;;7.00;;
6438;SDS011;3252;52.540;13.290;2023-09-08T02:26:40;13.00;;;7.60;;
6438;SDS011;3252;52.540;13.290;2023-09-08T02:28:43;13.20;;;7.80;;
6438;SDS011;3252;52.540;13.290;2023-09-08T02:30:48;11.60;;;7.23;;
6438;SDS011;3252;52.540;13.290;2023-09-08T02:32:50;9.70;;;7.33;;
6438;SDS011;3252;52.540;13.290;2023-09-08T02:34:52;11.23;;;8.00;;
6438;SDS011;3252;52.540;13.290;2023-09-08T02:36:55;15.67;;;8.10;;
6438;SDS011;3252;52.540;13.290;2023-09-08T02:38:59;11.27;;;7.83;;
6438;SDS011;3252;52.540;13.290;2023-09-08T02:41:02;12.90;;;7.90;;
6438;SDS011;3252;52.540;13.290;2023-09-08T02:43:04;10.27;;;7.53;;
6438;SDS011;3252;52.540;13.290;2023-09-08T02:45:07;9.17;;;7.20;;
6438;SDS011;3252;52.540;13.290;2023-09-08T02:47:11;14.07;;;7.47;;
6438;SDS011;3252;52.540;13.290;2023-09-08T02:49:15;11.87;;;8.10;;
6438;SDS011;3252;52.540;13.290;2023-09-08T02:51:18;10.67;;;7.90;;
6438;SDS011;3252;52.540;13.290;2023-09-08T02:53:20;10.30;;;7.73;;
6438;SDS011;3252;52.540;13.290;2023-09-08T02:55:21;12.37;;;7.33;;
6438;SDS011;3252;52.540;13.290;2023-09-08T02:57:23;12.13;;;7.60;;
6438;SDS011;3252;52.540;13.290;2023-09-08T02:59:25;14.47;;;7.80;;
6438;SDS011;3252;52.540;13.290;2023-09-08T03:01:27;10.63;;;7.33;;
6438;SDS011;3252;52.540;13.290;2023-09-08T03:03:31;13.23;;;7.77;;
6438;SDS011;3252;52.540;13.290;2023-09-08T03:05:34;15.17;;;8.03;;
6438;SDS011;3252;52.540;13.290;2023-09-08T03:07:37;10.43;;;7.97;;
6438;SDS011;3252;52.540;13.290;2023-09-08T03:09:39;8.67;;;7.73;;
6438;SDS011;3252;52.540;13.290;2023-09-08T03:11:41;10.33;;;7.80;;
6438;SDS011;3252;52.540;13.290;2023-09-08T03:13:43;11.13;;;7.93;;
6438;SDS011;3252;52.540;13.290;2023-09-08T03:15:45;9.23;;;7.57;;
6438;SDS011;3252;52.540;13.290;2023-09-08T03:17:47;12.47;;;7.50;;
6438;SDS011;3252;52.540;13.290;2023-09-08T03:19:50;11.53;;;8.17;;
6438;SDS011;3252;52.540;13.290;2023-09-08T03:21:52;11.53;;;7.80;;
6438;SDS011;3252;52.540;13.290;2023-09-08T03:23:54;15.80;;;7.90;;
6438;SDS011;3252;52.540;13.290;2023-09-08T03:25:57;11.17;;;7.93;;
6438;SDS011;3252;52.540;13.290;2023-09-08T03:28:00;17.00;;;8.13;;
6438;SDS011;3252;52.540;13.290;2023-09-08T03:30:02;12.60;;;7.80;;
6438;SDS011;3252;52.540;13.290;2023-09-08T03:32:05;13.17;;;8.17;;
6438;SDS011;3252;52.540;13.290;2023-09-08T03:34:07;11.87;;;7.90;;
6438;SDS011;3252;52.540;13.290;2023-09-08T03:36:11;11.27;;;7.97;;
6438;SDS011;3252;52.540;13.290;2023-09-08T03:38:14;12.07;;;7.53;;
6438;SDS011;3252;52.540;13.290;2023-09-08T03:40:16;12.27;;;8.20;;
6438;SDS011;3252;52.540;13.290;2023-09-08T03:42:18;12.53;;;8.03;;
6438;SDS011;3252;52.540;13.290;2023-09-08T03:44:20;11.73;;;8.57;;
6438;SDS011;3252;52.540;13.290;2023-09-08T03:46:22;11.37;;;8.17;;
6438;SDS011;3252;52.540;13.290;2023-09-08T03:48:25;13.40;;;7.90;;
6438;SDS011;3252;52.540;13.290;2023-09-08T03:50:28;9.60;;;7.90;;
6438;SDS011;3252;52.540;13.290;2023-09-08T03:52:32;12.17;;;8.10;;
6438;SDS011;3252;52.540;13.290;2023-09-08T03:54:33;11.00;;;7.23;;
6438;SDS011;3252;52.540;13.290;2023-09-08T03:56:35;14.03;;;8.47;;
6438;SDS011;3252;52.540;13.290;2023-09-08T03:58:38;11.87;;;7.90;;
6438;SDS011;3252;52.540;13.290;2023-09-08T04:00:40;14.17;;;8.43;;
6438;SDS011;3252;52.540;13.290;2023-09-08T04:02:42;12.37;;;7.80;;
6438;SDS011;3252;52.540;13.290;2023-09-08T04:04:44;13.37;;;7.53;;
6438;SDS011;3252;52.540;13.290;2023-09-08T04:06:46;10.73;;;7.37;;
6438;SDS011;3252;52.540;13.290;2023-09-08T04:08:50;11.50;;;7.43;;
6438;SDS011;3252;52.540;13.290;2023-09-08T04:10:53;10.97;;;7.63;;
6438;SDS011;3252;52.540;13.290;2023-09-08T04:12:55;13.03;;;8.10;;
6438;SDS011;3252;52.540;13.290;2023-09-08T04:14:57;19.20;;;8.27;;
6438;SDS011;3252;52.540;13.290;2023-09-08T04:17:00;15.60;;;8.23;;
6438;SDS011;3252;52.540;13.290;2023-09-08T04:19:02;11.50;;;7.80;;
6438;SDS011;3252;52.540;13.290;2023-09-08T04:21:05;13.70;;;8.67;;
6438;SDS011;3252;52.540;13.290;2023-09-08T04:23:08;11.70;;;8.00;;
6438;SDS011;3252;52.540;13.290;2023-09-08T04:25:11;11.57;;;7.40;;
6438;SDS011;3252;52.540;13.290;2023-09-08T04:27:14;11.30;;;7.77;;
6438;SDS011;3252;52.540;13.290;2023-09-08T04:29:16;11.53;;;7.90;;
6438;SDS011;3252;52.540;13.290;2023-09-08T04:31:18;15.67;;;8.10;;
6438;SDS011;3252;52.540;13.290;2023-09-08T04:33:22;13.17;;;7.97;;
6438;SDS011;3252;52.540;13.290;2023-09-08T04:35:25;12.63;;;7.40;;
6438;SDS011;3252;52.540;13.290;2023-09-08T04:37:27;9.30;;;7.33;;
6438;SDS011;3252;52.540;13.290;2023-09-08T04:39:31;10.97;;;7.43;;
6438;SDS011;3252;52.540;13.290;2023-09-08T04:41:35;12.67;;;7.70;;
6438;SDS011;3252;52.540;13.290;2023-09-08T04:43:37;11.43;;;8.20;;
6438;SDS011;3252;52.540;13.290;2023-09-08T04:45:40;9.00;;;7.13;;
6438;SDS011;3252;52.540;13.290;2023-09-08T04:47:43;13.40;;;7.67;;
6438;SDS011;3252;52.540;13.290;2023-09-08T04:49:47;11.50;;;7.37;;
6438;SDS011;3252;52.540;13.290;2023-09-08T04:51:49;11.97;;;7.60;;
6438;SDS011;3252;52.540;13.290;2023-09-08T04:53:53;12.83;;;6.97;;
6438;SDS011;3252;52.540;13.290;2023-09-08T04:55:56;13.67;;;7.63;;
6438;SDS011;3252;52.540;13.290;2023-09-08T04:57:59;12.27;;;7.23;;
6438;SDS011;3252;52.540;13.290;2023-09-08T05:00:02;13.63;;;8.33;;
6438;SDS011;3252;52.540;13.290;2023-09-08T05:02:06;14.40;;;7.67;;
6438;SDS011;3252;52.540;13.290;2023-09-08T05:04:09;11.30;;;8.00;;
6438;SDS011;3252;52.540;13.290;2023-09-08T05:06:12;9.53;;;7.67;;
6438;SDS011;3252;52.540;13.290;2023-09-08T05:08:15;11.60;;;7.43;;
6438;SDS011;3252;52.540;13.290;2023-09-08T05:10:17;17.77;;;7.83;;
6438;SDS011;3252;52.540;13.290;2023-09-08T05:12:20;26.27;;;8.07;;
6438;SDS011;3252;52.540;13.290;2023-09-08T05:14:23;12.40;;;7.80;;
6438;SDS011;3252;52.540;13.290;2023-09-08T05:16:26;14.27;;;8.30;;
6438;SDS011;3252;52.540;13.290;2023-09-08T05:18:40;11.27;;;7.63;;
6438;SDS011;3252;52.540;13.290;2023-09-08T05:20:43;17.40;;;8.27;;
6438;SDS011;3252;52.540;13.290;2023-09-08T05:22:46;13.20;;;7.90;;
6438;SDS011;3252;52.540;13.290;2023-09-08T05:24:49;10.87;;;7.60;;
6438;SDS011;3252;52.540;13.290;2023-09-08T05:26:52;9.80;;;7.50;;
6438;SDS011;3252;52.540;13.290;2023-09-08T05:28:55;13.63;;;8.57;;
6438;SDS011;3252;52.540;13.290;2023-09-08T05:30:59;18.70;;;8.30;;
6438;SDS011;3252;52.540;13.290;2023-09-08T05:33:02;16.97;;;8.70;;
6438;SDS011;3252;52.540;13.290;2023-09-08T05:35:05;13.97;;;8.13;;
6438;SDS011;3252;52.540;13.290;2023-09-08T05:37:07;14.93;;;8.83;;
6438;SDS011;3252;52.540;13.290;2023-09-08T05:39:10;14.00;;;8.70;;
6438;SDS011;3252;52.540;13.290;2023-09-08T05:41:14;15.97;;;8.93;;
6438;SDS011;3252;52.540;13.290;2023-09-08T05:43:16;11.83;;;8.50;;
6438;SDS011;3252;52.540;13.290;2023-09-08T05:45:18;12.57;;;8.43;;
6438;SDS011;3252;52.540;13.290;2023-09-08T05:47:22;12.67;;;7.83;;
6438;SDS011;3252;52.540;13.290;2023-09-08T05:49:25;12.77;;;8.03;;
6438;SDS011;3252;52.540;13.290;2023-09-08T05:51:26;13.07;;;7.67;;
6438;SDS011;3252;52.540;13.290;2023-09-08T05:53:30;11.80;;;8.20;;
6438;SDS011;3252;52.540;13.290;2023-09-08T05:55:32;11.80;;;7.80;;
6438;SDS011;3252;52.540;13.290;2023-09-08T05:57:34;11.90;;;7.20;;
6438;SDS011;3252;52.540;13.290;2023-09-08T05:59:36;18.20;;;8.00;;
6438;SDS011;3252;52.540;13.290;2023-09-08T06:01:38;14.67;;;7.87;;
6438;SDS011;3252;52.540;13.290;2023-09-08T06:03:44;15.87;;;8.30;;
6438;SDS011;3252;52.540;13.290;2023-09-08T06:05:48;11.43;;;7.80;;
6438;SDS011;3252;52.540;13.290;2023-09-08T06:07:50;11.87;;;7.80;;
6438;SDS011;3252;52.540;13.290;2023-09-08T06:09:52;13.60;;;8.00;;
6438;SDS011;3252;52.540;13.290;2023-09-08T06:11:54;11.73;;;7.53;;
6438;SDS011;3252;52.540;13.290;2023-09-08T06:13:56;12.43;;;7.57;;
6438;SDS011;3252;52.540;13.290;2023-09-08T06:16:01;16.53;;;9.57;;
6438;SDS011;3252;52.540;13.290;2023-09-08T06:18:03;11.73;;;7.60;;
6438;SDS011;3252;52.540;13.290;2023-09-08T06:20:09;17.73;;;8.50;;
6438;SDS011;3252;52.540;13.290;2023-09-08T06:22:12;12.20;;;7.70;;
6438;SDS011;3252;52.540;13.290;2023-09-08T06:24:16;13.57;;;8.40;;
6438;SDS011;3252;52.540;13.290;2023-09-08T06:26:18;12.47;;;7.57;;
6438;SDS011;3252;52.540;13.290;2023-09-08T06:28:21;13.93;;;7.57;;
6438;SDS011;3252;52.540;13.290;2023-09-08T06:30:23;15.27;;;7.50;;
6438;SDS011;3252;52.540;13.290;2023-09-08T06:32:25;12.77;;;7.83;;
6438;SDS011;3252;52.540;13.290;2023-09-08T06:34:27;12.93;;;7.73;;
6438;SDS011;3252;52.540;13.290;2023-09-08T06:36:31;14.67;;;8.13;;
6438;SDS011;3252;52.540;13.290;2023-09-08T06:38:33;13.93;;;7.77;;
6438;SDS011;3252;52.540;13.290;2023-09-08T06:40:36;10.93;;;7.07;;
6438;SDS011;3252;52.540;13.290;2023-09-08T06:42:38;13.27;;;7.23;;
6438;SDS011;3252;52.540;13.290;2023-09-08T06:44:50;11.27;;;7.40;;
6438;SDS011;3252;52.540;13.290;2023-09-08T06:46:53;16.73;;;7.53;;
6438;SDS011;3252;52.540;13.290;2023-09-08T06:48:56;14.67;;;7.50;;
6438;SDS011;3252;52.540;13.290;2023-09-08T06:50:58;9.77;;;6.93;;
6438;SDS011;3252;52.540;13.290;2023-09-08T06:53:06;11.43;;;7.37;;
6438;SDS011;3252;52.540;13.290;2023-09-08T06:55:09;14.00;;;7.30;;
6438;SDS011;3252;52.540;13.290;2023-09-08T06:57:14;14.03;;;7.00;;
6438;SDS011;3252;52.540;13.290;2023-09-08T06:59:16;10.23;;;7.00;;
6438;SDS011;3252;52.540;13.290;2023-09-08T07:01:18;11.60;;;7.00;;
6438;SDS011;3252;52.540;13.290;2023-09-08T07:03:21;15.50;;;7.33;;
6438;SDS011;3252;52.540;13.290;2023-09-08T07:05:24;15.80;;;7.67;;
6438;SDS011;3252;52.540;13.290;2023-09-08T07:07:26;11.80;;;7.00;;
6438;SDS011;3252;52.540;13.290;2023-09-08T07:09:30;12.10;;;6.90;;
6438;SDS011;3252;52.540;13.290;2023-09-08T07:11:32;12.70;;;7.13;;
6438;SDS011;3252;52.540;13.290;2023-09-08T07:13:34;15.07;;;7.10;;
6438;SDS011;3252;52.540;13.290;2023-09-08T07:15:36;15.43;;;7.30;;
6438;SDS011;3252;52.540;13.290;2023-09-08T07:17:39;13.20;;;7.10;;
6438;SDS011;3252;52.540;13.290;2023-09-08T07:19:42;17.43;;;7.17;;
6438;SDS011;3252;52.540;13.290;2023-09-08T07:21:44;11.23;;;6.93;;
6438;SDS011;3252;52.540;13.290;2023-09-08T07:23:47;13.85;;;7.18;;
6438;SDS011;3252;52.540;13.290;2023-09-08T07:25:51;13.10;;;7.03;;
6438;SDS011;3252;52.540;13.290;2023-09-08T07:27:57;13.82;;;6.80;;
6438;SDS011;3252;52.540;13.290;2023-09-08T07:30:01;17.58;;;6.95;;
6438;SDS011;3252;52.540;13.290;2023-09-08T07:32:05;14.93;;;6.55;;
6438;SDS011;3252;52.540;13.290;2023-09-08T07:34:08;14.60;;;6.93;;
6438;SDS011;3252;52.540;13.290;2023-09-08T07:36:09;19.37;;;7.37;;
6438;SDS011;3252;52.540;13.290;2023-09-08T07:38:14;10.70;;;5.87;;
6438;SDS011;3252;52.540;13.290;2023-09-08T07:40:17;12.53;;;6.63;;
6438;SDS011;3252;52.540;13.290;2023-09-08T07:42:20;9.20;;;6.18;;
6438;SDS011;3252;52.540;13.290;2023-09-08T07:44:24;15.17;;;6.37;;
6438;SDS011;3252;52.540;13.290;2023-09-08T07:46:26;12.40;;;6.50;;
6438;SDS011;3252;52.540;13.290;2023-09-08T07:48:28;16.98;;;6.78;;
6438;SDS011;3252;52.540;13.290;2023-09-08T07:50:30;19.30;;;7.05;;
6438;SDS011;3252;52.540;13.290;2023-09-08T07:52:32;16.83;;;6.93;;
6438;SDS011;3252;52.540;13.290;2023-09-08T07:54:35;13.95;;;7.22;;
6438;SDS011;3252;52.540;13.290;2023-09-08T07:56:37;13.50;;;6.53;;
6438;SDS011;3252;52.540;13.290;2023-09-08T07:58:42;15.07;;;6.57;;
6438;SDS011;3252;52.540;13.290;2023-09-08T08:00:44;10.63;;;6.78;;
6438;SDS011;3252;52.540;13.290;2023-09-08T08:02:47;12.85;;;7.07;;
6438;SDS011;3252;52.540;13.290;2023-09-08T08:04:50;9.20;;;5.90;;
6438;SDS011;3252;52.540;13.290;2023-09-08T08:06:52;12.45;;;6.13;;
6438;SDS011;3252;52.540;13.290;2023-09-08T08:08:54;13.52;;;6.20;;
6438;SDS011;3252;52.540;13.290;2023-09-08T08:10:57;12.60;;;5.90;;
6438;SDS011;3252;52.540;13.290;2023-09-08T08:12:58;12.30;;;5.75;;
6438;SDS011;3252;52.540;13.290;2023-09-08T08:15:03;11.57;;;5.78;;
6438;SDS011;3252;52.540;13.290;2023-09-08T08:17:06;11.43;;;5.57;;
6438;SDS011;3252;52.540;13.290;2023-09-08T08:19:08;9.82;;;5.90;;
6438;SDS011;3252;52.540;13.290;2023-09-08T08:21:10;9.82;;;5.25;;
6438;SDS011;3252;52.540;13.290;2023-09-08T08:23:12;14.85;;;6.03;;
6438;SDS011;3252;52.540;13.290;2023-09-08T08:25:15;10.95;;;5.38;;
6438;SDS011;3252;52.540;13.290;2023-09-08T08:27:17;9.60;;;5.72;;
6438;SDS011;3252;52.540;13.290;2023-09-08T08:29:18;8.07;;;5.43;;
6438;SDS011;3252;52.540;13.290;2023-09-08T08:31:22;10.85;;;5.63;;
6438;SDS011;3252;52.540;13.290;2023-09-08T08:33:25;10.20;;;5.40;;
6438;SDS011;3252;52.540;13.290;2023-09-08T08:35:27;9.52;;;5.38;;
6438;SDS011;3252;52.540;13.290;2023-09-08T08:37:29;9.38;;;5.38;;
6438;SDS011;3252;52.540;13.290;2023-09-08T08:39:30;8.77;;;5.65;;
6438;SDS011;3252;52.540;13.290;2023-09-08T08:41:33;15.68;;;5.80;;
6438;SDS011;3252;52.540;13.290;2023-09-08T08:43:38;13.43;;;5.88;;
6438;SDS011;3252;52.540;13.290;2023-09-08T08:45:41;13.18;;;5.65;;
6438;SDS011;3252;52.540;13.290;2023-09-08T08:47:45;11.65;;;5.68;;
6438;SDS011;3252;52.540;13.290;2023-09-08T08:49:48;11.20;;;5.53;;
6438;SDS011;3252;52.540;13.290;2023-09-08T08:51:52;8.18;;;5.32;;
6438;SDS011;3252;52.540;13.290;2023-09-08T08:53:54;11.98;;;5.95;;
6438;SDS011;3252;52.540;13.290;2023-09-08T08:55:56;11.88;;;5.88;;
6438;SDS011;3252;52.540;13.290;2023-09-08T08:58:03;10.38;;;5.30;;
6438;SDS011;3252;52.540;13.290;2023-09-08T09:00:07;12.27;;;5.13;;
6438;SDS011;3252;52.540;13.290;2023-09-08T09:02:12;8.80;;;5.30;;
6438;SDS011;3252;52.540;13.290;2023-09-08T09:04:16;8.65;;;5.57;;
6438;SDS011;3252;52.540;13.290;2023-09-08T09:06:19;8.75;;;5.45;;
6438;SDS011;3252;52.540;13.290;2023-09-08T09:08:22;10.57;;;5.55;;
6438;SDS011;3252;52.540;13.290;2023-09-08T09:10:25;12.02;;;5.10;;
6438;SDS011;3252;52.540;13.290;2023-09-08T09:12:27;10.07;;;5.13;;
6438;SDS011;3252;52.540;13.290;2023-09-08T09:14:31;11.00;;;4.70;;
6438;SDS011;3252;52.540;13.290;2023-09-08T09:16:38;7.53;;;5.00;;
6438;SDS011;3252;52.540;13.290;2023-09-08T09:18:53;10.40;;;5.40;;
6438;SDS011;3252;52.540;13.290;2023-09-08T09:20:58;12.57;;;5.80;;
6438;SDS011;3252;52.540;13.290;2023-09-08T09:23:02;10.75;;;5.57;;
6438;SDS011;3252;52.540;13.290;2023-09-08T09:25:05;16.23;;;5.30;;
6438;SDS011;3252;52.540;13.290;2023-09-08T09:27:08;9.80;;;5.32;;
6438;SDS011;3252;52.540;13.290;2023-09-08T09:29:13;7.95;;;5.10;;
6438;SDS011;3252;52.540;13.290;2023-09-08T09:31:15;8.88;;;6.22;;
6438;SDS011;3252;52.540;13.290;2023-09-08T09:33:17;10.95;;;5.57;;
6438;SDS011;3252;52.540;13.290;2023-09-08T09:35:18;8.80;;;5.43;;
6438;SDS011;3252;52.540;13.290;2023-09-08T09:37:22;10.80;;;5.72;;
6438;SDS011;3252;52.540;13.290;2023-09-08T09:39:25;13.02;;;5.32;;
6438;SDS011;3252;52.540;13.290;2023-09-08T09:41:28;12.45;;;6.43;;
6438;SDS011;3252;52.540;13.290;2023-09-08T09:43:30;9.73;;;5.30;;
6438;SDS011;3252;52.540;13.290;2023-09-08T09:45:34;8.90;;;5.10;;
6438;SDS011;3252;52.540;13.290;2023-09-08T09:47:37;11.35;;;5.80;;
6438;SDS011;3252;52.540;13.290;2023-09-08T09:49:41;11.25;;;5.22;;
6438;SDS011;3252;52.540;13.290;2023-09-08T09:51:45;7.25;;;5.40;;
6438;SDS011;3252;52.540;13.290;2023-09-08T09:53:50;9.50;;;4.75;;
6438;SDS011;3252;52.540;13.290;2023-09-08T09:55:52;8.48;;;4.90;;
6438;SDS011;3252;52.540;13.290;2023-09-08T09:57:56;9.73;;;5.60;;
6438;SDS011;3252;52.540;13.290;2023-09-08T09:59:58;8.68;;;5.10;;
6438;SDS011;3252;52.540;13.290;2023-09-08T10:02:06;8.60;;;5.47;;
6438;SDS011;3252;52.540;13.290;2023-09-08T10:04:13;9.32;;;5.50;;
6438;SDS011;3252;52.540;13.290;2023-09-08T10:06:16;7.45;;;5.05;;
6438;SDS011;3252;52.540;13.290;2023-09-08T10:08:21;8.60;;;5.05;;
6438;SDS011;3252;52.540;13.290;2023-09-08T10:10:26;10.85;;;5.32;;
6438;SDS011;3252;52.540;13.290;2023-09-08T10:12:31;14.85;;;4.97;;
6438;SDS011;3252;52.540;13.290;2023-09-08T10:14:36;12.30;;;5.30;;
6438;SDS011;3252;52.540;13.290;2023-09-08T10:16:43;11.43;;;5.30;;
6438;SDS011;3252;52.540;13.290;2023-09-08T10:18:49;7.55;;;4.75;;
6438;SDS011;3252;52.540;13.290;2023-09-08T10:20:53;6.63;;;4.90;;
6438;SDS011;3252;52.540;13.290;2023-09-08T10:23:16;13.50;;;4.60;;
6438;SDS011;3252;52.540;13.290;2023-09-08T10:25:31;7.50;;;4.82;;
6438;SDS011;3252;52.540;13.290;2023-09-08T10:27:38;12.60;;;5.30;;
6438;SDS011;3252;52.540;13.290;2023-09-08T10:29:41;10.35;;;4.90;;
6438;SDS011;3252;52.540;13.290;2023-09-08T10:31:44;11.18;;;6.20;;
6438;SDS011;3252;52.540;13.290;2023-09-08T10:33:46;10.75;;;5.13;;
6438;SDS011;3252;52.540;13.290;2023-09-08T10:35:49;6.90;;;5.13;;
6438;SDS011;3252;52.540;13.290;2023-09-08T10:37:52;9.65;;;5.07;;
6438;SDS011;3252;52.540;13.290;2023-09-08T10:40:23;8.50;;;5.07;;
6438;SDS011;3252;52.540;13.290;2023-09-08T10:42:29;12.02;;;5.28;;
6438;SDS011;3252;52.540;13.290;2023-09-08T10:44:31;11.43;;;4.72;;
6438;SDS011;3252;52.540;13.290;2023-09-08T10:46:33;12.27;;;4.55;;
6438;SDS011;3252;52.540;13.290;2023-09-08T10:48:39;7.97;;;4.53;;
6438;SDS011;3252;52.540;13.290;2023-09-08T10:50:43;5.05;;;4.53;;
6438;SDS011;3252;52.540;13.290;2023-09-08T10:52:45;8.48;;;4.55;;
6438;SDS011;3252;52.540;13.290;2023-09-08T10:55:11;13.50;;;4.47;;
6438;SDS011;3252;52.540;13.290;2023-09-08T10:57:14;7.15;;;4.53;;
6438;SDS011;3252;52.540;13.290;2023-09-08T10:59:18;11.63;;;4.68;;
6438;SDS011;3252;52.540;13.290;2023-09-08T11:01:20;7.15;;;4.47;;
6438;SDS011;3252;52.540;13.290;2023-09-08T11:03:28;8.48;;;4.78;;
6438;SDS011;3252;52.540;13.290;2023-09-08T11:05:45;10.10;;;4.70;;
6438;SDS011;3252;52.540;13.290;2023-09-08T11:07:47;8.55;;;4.75;;
6438;SDS011;3252;52.540;13.290;2023-09-08T11:09:52;8.55;;;4.38;;
6438;SDS011;3252;52.540;13.290;2023-09-08T11:11:55;9.10;;;4.57;;
6438;SDS011;3252;52.540;13.290;2023-09-08T11:13:57;14.10;;;4.80;;
6438;SDS011;3252;52.540;13.290;2023-09-08T11:16:03;6.20;;;4.20;;
6438;SDS011;3252;52.540;13.290;2023-09-08T11:18:05;6.13;;;4.28;;
6438;SDS011;3252;52.540;13.290;2023-09-08T11:20:08;24.33;;;4.72;;
6438;SDS011;3252;52.540;13.290;2023-09-08T11:22:12;8.13;;;4.22;;
6438;SDS011;3252;52.540;13.290;2023-09-08T11:24:15;14.68;;;4.13;;
6438;SDS011;3252;52.540;13.290;2023-09-08T11:26:18;8.98;;;4.60;;
6438;SDS011;3252;52.540;13.290;2023-09-08T11:28:21;7.43;;;4.20;;
6438;SDS011;3252;52.540;13.290;2023-09-08T11:30:24;7.75;;;4.28;;
6438;SDS011;3252;52.540;13.290;2023-09-08T11:32:32;9.60;;;4.75;;
6438;SDS011;3252;52.540;13.290;2023-09-08T11:34:35;11.43;;;4.38;;
6438;SDS011;3252;52.540;13.290;2023-09-08T11:36:37;8.25;;;4.20;;
6438;SDS011;3252;52.540;13.290;2023-09-08T11:38:39;6.75;;;4.00;;
6438;SDS011;3252;52.540;13.290;2023-09-08T11:40:44;8.32;;;4.13;;
6438;SDS011;3252;52.540;13.290;2023-09-08T11:42:46;11.02;;;4.35;;
6438;SDS011;3252;52.540;13.290;2023-09-08T11:44:48;10.27;;;4.45;;
6438;SDS011;3252;52.540;13.290;2023-09-08T11:46:50;7.93;;;4.50;;
6438;SDS011;3252;52.540;13.290;2023-09-08T11:48:54;9.43;;;4.38;;
6438;SDS011;3252;52.540;13.290;2023-09-08T11:50:56;7.63;;;5.60;;
6438;SDS011;3252;52.540;13.290;2023-09-08T11:52:59;6.75;;;4.53;;
6438;SDS011;3252;52.540;13.290;2023-09-08T11:55:03;6.40;;;4.40;;
6438;SDS011;3252;52.540;13.290;2023-09-08T11:57:05;9.18;;;3.92;;
6438;SDS011;3252;52.540;13.290;2023-09-08T11:59:08;7.95;;;4.50;;
6438;SDS011;3252;52.540;13.290;2023-09-08T12:01:10;9.90;;;4.90;;
6438;SDS011;3252;52.540;13.290;2023-09-08T12:03:14;12.38;;;4.75;;
6438;SDS011;3252;52.540;13.290;2023-09-08T12:05:24;12.50;;;4.70;;
6438;SDS011;3252;52.540;13.290;2023-09-08T12:07:28;6.05;;;4.55;;
6438;SDS011;3252;52.540;13.290;2023-09-08T12:09:29;7.90;;;4.50;;
6438;SDS011;3252;52.540;13.290;2023-09-08T12:11:32;7.20;;;4.28;;
6438;SDS011;3252;52.540;13.290;2023-09-08T12:13:35;6.82;;;4.35;;
6438;SDS011;3252;52.540;13.290;2023-09-08T12:15:38;7.22;;;4.30;;
6438;SDS011;3252;52.540;13.290;2023-09-08T12:17:46;7.78;;;4.55;;
6438;SDS011;3252;52.540;13.290;2023-09-08T12:19:50;9.73;;;4.70;;
6438;SDS011;3252;52.540;13.290;2023-09-08T12:21:55;8.10;;;4.55;;
6438;SDS011;3252;52.540;13.290;2023-09-08T12:23:58;8.43;;;4.15;;
6438;SDS011;3252;52.540;13.290;2023-09-08T12:26:00;11.45;;;4.47;;